createdAt,value
2019-04-10T00:01:07.485Z,20.60
2019-04-10T00:03:39.123Z,17.13
2019-04-10T00:06:08.825Z,15.10
2019-04-10T00:08:39.310Z,16.53
2019-04-10T00:11:10.181Z,15.43
2019-04-10T00:13:40.729Z,16.37
2019-04-10T00:16:13.922Z,16.77
2019-04-10T00:18:44.483Z,15.97
2019-04-10T00:21:15.525Z,15.27
2019-04-10T00:23:47.089Z,18.33
2019-04-10T00:26:17.783Z,17.03
2019-04-10T00:28:48.411Z,14.40
2019-04-10T00:31:19.758Z,16.47
2019-04-10T00:33:51.367Z,20.90
2019-04-10T00:36:22.050Z,20.47
2019-04-10T00:38:52.558Z,19.93
2019-04-10T00:41:24.083Z,17.97
2019-04-10T00:43:55.242Z,16.00
2019-04-10T00:46:26.944Z,20.90
2019-04-10T00:48:58.605Z,17.37
2019-04-10T00:51:31.016Z,18.77
2019-04-10T00:54:01.706Z,18.57
2019-04-10T00:56:33.387Z,19.20
2019-04-10T00:59:03.925Z,22.17
2019-04-10T01:01:34.473Z,22.53
2019-04-10T01:04:08.011Z,29.60
2019-04-10T01:06:38.604Z,20.27
2019-04-10T01:09:10.662Z,19.67
2019-04-10T01:11:41.420Z,19.67
2019-04-10T01:14:12.152Z,20.70
2019-04-10T01:16:42.638Z,15.23
2019-04-10T01:19:13.367Z,20.37
2019-04-10T01:21:44.295Z,16.10
2019-04-10T01:24:14.818Z,16.00
2019-04-10T01:26:45.496Z,17.57
2019-04-10T01:29:16.230Z,18.13
2019-04-10T01:31:47.645Z,19.50
2019-04-10T01:34:19.042Z,20.57
2019-04-10T01:36:49.540Z,18.23
2019-04-10T01:39:24.260Z,18.63
2019-04-10T01:41:54.933Z,14.83
2019-04-10T01:44:28.800Z,24.90
2019-04-10T01:46:59.432Z,14.33
2019-04-10T01:49:33.658Z,18.53
2019-04-10T01:52:04.814Z,15.50
2019-04-10T01:54:39.560Z,14.20
2019-04-10T01:57:10.439Z,19.13
2019-04-10T01:59:42.416Z,13.97
2019-04-10T02:02:25.360Z,13.40
2019-04-10T02:04:56.793Z,19.80
2019-04-10T02:07:27.462Z,16.77
2019-04-10T02:09:59.534Z,20.50
2019-04-10T02:12:30.407Z,12.60
2019-04-10T02:15:01.034Z,15.47
2019-04-10T02:17:32.710Z,14.27
2019-04-10T02:20:03.424Z,12.13
2019-04-10T02:22:34.030Z,16.50
2019-04-10T02:25:05.255Z,22.63
2019-04-10T02:27:35.888Z,16.90
2019-04-10T02:30:08.113Z,18.33
2019-04-10T02:32:41.143Z,22.27
2019-04-10T02:35:15.236Z,14.10
2019-04-10T02:37:43.658Z,13.83
2019-04-10T02:40:15.159Z,13.50
2019-04-10T02:42:47.382Z,14.40
2019-04-10T02:45:19.092Z,13.93
2019-04-10T02:47:50.939Z,18.33
2019-04-10T02:50:21.835Z,19.13
2019-04-10T02:52:52.474Z,20.57
2019-04-10T02:55:23.174Z,14.83
2019-04-10T02:57:54.303Z,16.97
2019-04-10T03:00:26.906Z,18.93
2019-04-10T03:02:59.300Z,16.00
2019-04-10T03:05:30.502Z,25.83
2019-04-10T03:08:01.986Z,28.50
2019-04-10T03:10:41.264Z,27.17
2019-04-10T03:13:05.189Z,21.33
2019-04-10T03:15:36.037Z,21.53
2019-04-10T03:18:06.857Z,20.33
2019-04-10T03:20:38.400Z,22.30
2019-04-10T03:23:11.542Z,17.60
2019-04-10T03:25:43.272Z,20.17
2019-04-10T03:28:19.258Z,14.23
2019-04-10T03:30:49.715Z,19.43
2019-04-10T03:33:41.983Z,15.73
2019-04-10T03:36:13.864Z,22.47
2019-04-10T03:38:55.334Z,21.50
2019-04-10T03:41:17.758Z,26.70
2019-04-10T03:43:48.499Z,24.60
2019-04-10T03:46:19.542Z,25.13
2019-04-10T03:48:53.506Z,32.00
2019-04-10T03:51:28.242Z,24.40
2019-04-10T03:53:58.893Z,31.67
2019-04-10T03:56:29.721Z,32.80
2019-04-10T03:59:00.541Z,35.00
2019-04-10T04:01:32.064Z,44.67
2019-04-10T04:04:02.854Z,48.73
2019-04-10T04:06:33.468Z,40.97
2019-04-10T04:09:09.572Z,42.30
2019-04-10T04:11:37.917Z,34.47
2019-04-10T04:14:08.406Z,29.67
2019-04-10T04:16:39.407Z,20.90
2019-04-10T04:19:11.170Z,19.57
2019-04-10T04:21:41.898Z,26.80
2019-04-10T04:24:12.415Z,22.77
2019-04-10T04:26:43.563Z,23.37
2019-04-10T04:29:14.417Z,24.53
2019-04-10T04:31:45.286Z,22.50
2019-04-10T04:34:15.857Z,23.57
2019-04-10T04:36:48.786Z,28.03
2019-04-10T04:39:24.909Z,38.30
2019-04-10T04:41:52.046Z,28.60
2019-04-10T04:44:22.802Z,30.77
2019-04-10T04:46:53.363Z,24.53
2019-04-10T04:49:24.329Z,24.03
2019-04-10T04:51:55.165Z,24.77
2019-04-10T04:54:25.742Z,21.37
2019-04-10T04:56:56.413Z,24.53
2019-04-10T04:59:28.168Z,24.37
2019-04-10T05:01:58.631Z,19.50
2019-04-10T05:04:32.326Z,19.60
2019-04-10T05:07:02.232Z,24.93
2019-04-10T05:09:36.928Z,26.17
2019-04-10T05:12:05.324Z,19.97
2019-04-10T05:14:35.768Z,22.73
2019-04-10T05:17:06.381Z,21.50
2019-04-10T05:19:38.251Z,19.47
2019-04-10T05:22:10.126Z,23.77
2019-04-10T05:24:40.974Z,14.40
2019-04-10T05:27:11.914Z,19.27
2019-04-10T05:29:42.993Z,15.80
2019-04-10T05:32:14.532Z,12.60
2019-04-10T05:34:46.685Z,13.73
2019-04-10T05:37:17.427Z,11.53
2019-04-10T05:39:50.773Z,18.53
2019-04-10T05:42:20.646Z,16.87
2019-04-10T05:44:52.213Z,12.73
2019-04-10T05:47:26.214Z,13.70
2019-04-10T05:49:57.686Z,9.60
2019-04-10T05:52:28.910Z,15.13
2019-04-10T05:54:59.916Z,17.10
2019-04-10T05:57:30.982Z,14.37
2019-04-10T06:00:08.296Z,15.20
2019-04-10T06:02:39.816Z,12.27
2019-04-10T06:05:11.032Z,13.83
2019-04-10T06:07:41.510Z,11.53
2019-04-10T06:10:13.331Z,11.30
2019-04-10T06:12:44.770Z,11.27
2019-04-10T06:15:16.824Z,10.67
2019-04-10T06:17:47.540Z,16.17
2019-04-10T06:20:18.196Z,12.73
2019-04-10T06:22:50.608Z,10.67
2019-04-10T06:25:24.005Z,11.30
2019-04-10T06:27:54.003Z,12.27
2019-04-10T06:30:24.567Z,9.43
2019-04-10T06:32:55.739Z,14.33
2019-04-10T06:35:26.567Z,10.83
2019-04-10T06:37:57.401Z,10.50
2019-04-10T06:40:29.391Z,9.87
2019-04-10T06:43:01.053Z,11.93
2019-04-10T06:45:31.709Z,9.00
2019-04-10T06:48:02.742Z,8.67
2019-04-10T06:50:33.644Z,9.67
2019-04-10T06:53:04.488Z,13.90
2019-04-10T06:55:36.368Z,11.67
2019-04-10T06:58:07.621Z,12.20
2019-04-10T07:00:39.068Z,8.43
2019-04-10T07:03:10.675Z,14.10
2019-04-10T07:05:56.312Z,13.37
2019-04-10T07:08:19.055Z,12.20
2019-04-10T07:10:56.181Z,12.70
2019-04-10T07:13:20.896Z,12.97
2019-04-10T07:15:54.390Z,12.00
2019-04-10T07:18:24.290Z,12.93
2019-04-10T07:20:59.247Z,9.70
2019-04-10T07:23:30.206Z,13.57
2019-04-10T07:26:01.710Z,11.83
2019-04-10T07:28:33.544Z,12.33
2019-04-10T07:31:07.260Z,13.77
2019-04-10T07:33:37.317Z,10.10
2019-04-10T07:36:11.374Z,11.57
2019-04-10T07:38:41.261Z,9.50
2019-04-10T07:41:19.422Z,12.90
2019-04-10T07:43:44.769Z,13.90
2019-04-10T07:46:15.678Z,8.17
2019-04-10T07:48:46.515Z,10.63
2019-04-10T07:51:17.254Z,8.33
2019-04-10T07:53:49.005Z,14.67
2019-04-10T07:56:20.936Z,12.87
2019-04-10T07:58:51.892Z,11.23
2019-04-10T08:01:22.659Z,10.13
2019-04-10T08:03:54.003Z,10.50
2019-04-10T08:06:25.685Z,12.07
2019-04-10T08:08:56.575Z,10.53
2019-04-10T08:11:27.397Z,9.70
2019-04-10T08:13:59.156Z,9.37
2019-04-10T08:16:30.781Z,9.03
2019-04-10T08:19:01.924Z,14.53
2019-04-10T08:21:33.861Z,12.37
2019-04-10T08:24:04.675Z,15.10
2019-04-10T08:26:36.652Z,10.30
2019-04-10T08:29:07.760Z,9.40
2019-04-10T08:31:39.638Z,10.70
2019-04-10T08:34:10.998Z,9.23
2019-04-10T08:36:41.914Z,10.17
2019-04-10T08:39:14.403Z,9.70
2019-04-10T08:41:46.035Z,10.83
2019-04-10T08:44:17.715Z,10.73
2019-04-10T08:46:48.680Z,11.03
2019-04-10T08:49:21.269Z,14.27
2019-04-10T08:51:52.134Z,10.47
2019-04-10T08:54:23.845Z,10.30
2019-04-10T08:56:54.802Z,12.47
2019-04-10T08:59:27.724Z,12.27
2019-04-10T09:01:59.817Z,8.43
2019-04-10T09:04:31.189Z,8.83
2019-04-10T09:07:03.830Z,9.27
2019-04-10T09:09:35.607Z,7.57
2019-04-10T09:12:07.275Z,8.93
2019-04-10T09:14:37.834Z,9.13
2019-04-10T09:17:11.802Z,10.10
2019-04-10T09:19:42.706Z,8.77
2019-04-10T09:22:14.145Z,7.77
2019-04-10T09:24:44.967Z,7.80
2019-04-10T09:27:17.197Z,12.27
2019-04-10T09:29:48.588Z,7.90
2019-04-10T09:32:20.128Z,10.27
2019-04-10T09:34:52.065Z,9.07
2019-04-10T09:37:24.153Z,9.63
2019-04-10T09:39:58.068Z,10.00
2019-04-10T09:42:29.827Z,9.67
2019-04-10T09:45:00.689Z,7.80
2019-04-10T09:47:32.514Z,12.93
2019-04-10T09:50:03.805Z,8.67
2019-04-10T09:52:35.681Z,12.40
2019-04-10T09:55:07.683Z,6.80
2019-04-10T09:57:38.406Z,7.07
2019-04-10T10:00:10.596Z,10.03
2019-04-10T10:02:45.189Z,10.43
2019-04-10T10:05:18.158Z,8.10
2019-04-10T10:07:50.705Z,9.63
2019-04-10T10:10:22.644Z,10.63
2019-04-10T10:12:53.761Z,11.13
2019-04-10T10:15:25.256Z,11.17
2019-04-10T10:17:57.138Z,10.60
2019-04-10T10:20:29.205Z,9.93
2019-04-10T10:23:01.211Z,9.90
2019-04-10T10:25:33.262Z,10.30
2019-04-10T10:28:04.881Z,8.73
2019-04-10T10:30:35.779Z,10.57
2019-04-10T10:33:07.654Z,7.97
2019-04-10T10:35:39.003Z,10.40
2019-04-10T10:38:10.538Z,7.57
2019-04-10T10:40:41.488Z,14.90
2019-04-10T10:43:12.182Z,10.90
2019-04-10T10:45:43.024Z,9.27
2019-04-10T10:48:13.790Z,10.27
2019-04-10T10:50:45.610Z,7.83
2019-04-10T10:53:16.575Z,13.53
2019-04-10T10:55:47.634Z,8.30
2019-04-10T10:58:19.672Z,9.17
2019-04-10T11:00:51.640Z,16.63
2019-04-10T11:03:22.833Z,10.27
2019-04-10T11:05:54.803Z,10.27
2019-04-10T11:08:26.860Z,11.97
2019-04-10T11:10:58.983Z,10.10
2019-04-10T11:13:30.869Z,11.07
2019-04-10T11:16:04.325Z,13.00
2019-04-10T11:18:35.362Z,20.53
2019-04-10T11:21:09.737Z,12.83
2019-04-10T11:23:38.551Z,10.07
2019-04-10T11:26:14.049Z,14.33
2019-04-10T11:28:45.490Z,12.37
2019-04-10T11:31:17.923Z,9.77
2019-04-10T11:33:52.927Z,10.77
2019-04-10T11:36:21.420Z,11.17
2019-04-10T11:39:09.191Z,11.00
2019-04-10T11:41:29.956Z,8.80
2019-04-10T11:44:02.660Z,11.73
2019-04-10T11:46:35.298Z,11.37
2019-04-10T11:49:07.446Z,11.70
2019-04-10T11:51:38.921Z,10.10
2019-04-10T11:54:13.026Z,7.07
2019-04-10T11:56:43.069Z,10.07
2019-04-10T11:59:14.991Z,8.37
2019-04-10T12:01:46.782Z,11.37
2019-04-10T12:04:19.990Z,8.37
2019-04-10T12:06:54.061Z,10.93
2019-04-10T12:10:18.344Z,10.77
2019-04-10T12:11:55.828Z,7.10
2019-04-10T12:14:27.761Z,9.33
2019-04-10T12:16:58.542Z,11.40
2019-04-10T12:19:29.587Z,9.17
2019-04-10T12:22:00.437Z,11.80
2019-04-10T12:24:32.407Z,10.63
2019-04-10T12:27:04.436Z,13.60
2019-04-10T12:29:35.352Z,11.27
2019-04-10T12:32:06.299Z,8.07
2019-04-10T12:34:37.151Z,8.63
2019-04-10T12:37:08.923Z,9.27
2019-04-10T12:39:39.802Z,9.47
2019-04-10T12:42:10.476Z,9.23
2019-04-10T12:44:41.230Z,7.77
2019-04-10T12:47:12.011Z,10.33
2019-04-10T12:49:43.558Z,10.90
2019-04-10T12:52:14.686Z,10.90
2019-04-10T12:54:45.331Z,10.60
2019-04-10T12:57:16.999Z,10.73
2019-04-10T12:59:47.840Z,18.33
2019-04-10T13:02:18.585Z,10.37
2019-04-10T13:04:49.128Z,8.93
2019-04-10T13:07:19.764Z,8.47
2019-04-10T13:09:50.507Z,8.07
2019-04-10T13:12:21.258Z,10.43
2019-04-10T13:14:51.909Z,12.87
2019-04-10T13:17:22.796Z,10.40
2019-04-10T13:19:53.476Z,11.57
2019-04-10T13:22:25.081Z,12.60
2019-04-10T13:24:56.030Z,9.23
2019-04-10T13:27:26.686Z,12.40
2019-04-10T13:30:00.673Z,10.93
2019-04-10T13:32:31.893Z,10.57
2019-04-10T13:35:02.487Z,10.70
2019-04-10T13:37:33.723Z,9.67
2019-04-10T13:40:05.606Z,11.73
2019-04-10T13:42:37.166Z,6.93
2019-04-10T13:45:09.042Z,11.80
2019-04-10T13:47:40.768Z,11.63
2019-04-10T13:50:12.731Z,12.60
2019-04-10T13:52:45.970Z,13.47
2019-04-10T13:55:16.980Z,10.70
2019-04-10T13:57:48.784Z,13.53
2019-04-10T14:00:38.417Z,13.47
2019-04-10T14:03:08.401Z,13.77
2019-04-10T14:05:39.170Z,14.63
2019-04-10T14:08:12.469Z,14.57
2019-04-10T14:10:44.509Z,16.20
2019-04-10T14:13:15.717Z,13.70
2019-04-10T14:15:46.839Z,16.97
2019-04-10T14:18:18.348Z,13.77
2019-04-10T14:20:49.275Z,14.70
2019-04-10T14:23:26.516Z,10.53
2019-04-10T14:26:17.260Z,11.70
2019-04-10T14:28:49.350Z,11.60
2019-04-10T14:31:29.270Z,13.03
2019-04-10T14:33:59.941Z,11.27
2019-04-10T14:36:31.791Z,13.17
2019-04-10T14:39:12.146Z,16.97
2019-04-10T14:41:36.641Z,15.57
2019-04-10T14:44:08.226Z,14.33
2019-04-10T14:46:40.067Z,16.33
2019-04-10T14:49:11.118Z,19.90
2019-04-10T14:51:42.001Z,15.00
2019-04-10T14:54:13.348Z,18.97
2019-04-10T14:56:44.420Z,16.67
2019-04-10T14:59:17.798Z,13.80
2019-04-10T15:01:48.567Z,16.47
2019-04-10T15:04:19.482Z,18.20
2019-04-10T15:06:50.121Z,24.77
2019-04-10T15:09:25.910Z,15.27
2019-04-10T15:11:55.972Z,13.27
2019-04-10T15:14:27.733Z,14.90
2019-04-10T15:17:01.829Z,13.37
2019-04-10T15:19:32.315Z,15.47
2019-04-10T15:22:03.272Z,15.73
2019-04-10T15:24:33.867Z,12.77
2019-04-10T15:27:07.401Z,15.30
2019-04-10T15:29:40.916Z,19.73
2019-04-10T15:32:12.757Z,22.23
2019-04-10T15:34:43.784Z,16.20
2019-04-10T15:37:15.198Z,17.97
2019-04-10T15:39:46.396Z,22.03
2019-04-10T15:42:19.668Z,21.47
2019-04-10T15:44:50.460Z,14.93
2019-04-10T15:47:23.176Z,18.20
2019-04-10T15:49:53.613Z,12.57
2019-04-10T15:52:24.194Z,17.77
2019-04-10T15:54:55.434Z,21.10
2019-04-10T15:57:26.935Z,32.70
2019-04-10T15:59:59.207Z,17.87
2019-04-10T16:02:29.993Z,24.33
2019-04-10T16:05:01.443Z,21.53
2019-04-10T16:07:32.630Z,14.83
2019-04-10T16:10:23.127Z,19.57
2019-04-10T16:15:39.122Z,14.80
2019-04-10T16:18:13.610Z,14.60
2019-04-10T16:20:45.201Z,17.23
2019-04-10T16:23:21.844Z,16.87
2019-04-10T16:25:54.472Z,17.07
2019-04-10T16:28:25.068Z,20.30
2019-04-10T16:30:57.123Z,13.53
2019-04-10T16:33:27.831Z,13.93
2019-04-10T16:35:59.062Z,17.53
2019-04-10T16:38:30.976Z,28.27
2019-04-10T16:41:02.715Z,14.63
2019-04-10T16:43:33.640Z,11.50
2019-04-10T16:46:04.929Z,17.50
2019-04-10T16:48:35.933Z,17.63
2019-04-10T16:51:06.409Z,17.00
2019-04-10T16:53:38.049Z,24.17
2019-04-10T16:56:09.796Z,19.70
2019-04-10T16:58:41.253Z,23.27
2019-04-10T17:01:14.647Z,16.87
2019-04-10T17:03:46.287Z,21.50
2019-04-10T17:06:17.809Z,18.27
2019-04-10T17:08:48.685Z,25.33
2019-04-10T17:11:19.440Z,26.90
2019-04-10T17:13:50.898Z,25.33
2019-04-10T17:16:22.015Z,35.63
2019-04-10T17:18:53.158Z,29.87
2019-04-10T17:21:25.716Z,35.30
2019-04-10T17:23:56.749Z,38.33
2019-04-10T17:26:27.616Z,48.43
2019-04-10T17:28:58.879Z,39.83
2019-04-10T17:31:30.790Z,31.90
2019-04-10T17:34:02.803Z,27.97
2019-04-10T17:36:34.738Z,20.10
2019-04-10T17:39:11.468Z,22.17
2019-04-10T17:41:43.893Z,26.07
2019-04-10T17:44:15.797Z,32.37
2019-04-10T17:46:49.117Z,39.60
2019-04-10T17:49:21.364Z,43.20
2019-04-10T17:51:52.713Z,53.10
2019-04-10T17:54:23.261Z,50.90
2019-04-10T17:56:54.888Z,42.37
2019-04-10T17:59:26.713Z,67.27
2019-04-10T18:02:01.157Z,36.37
2019-04-10T18:04:33.853Z,46.77
2019-04-10T18:07:05.999Z,42.77
2019-04-10T18:09:38.778Z,62.93
2019-04-10T18:12:10.556Z,55.73
2019-04-10T18:14:42.608Z,51.47
2019-04-10T18:17:14.497Z,47.53
2019-04-10T18:19:46.192Z,53.70
2019-04-10T18:22:16.910Z,50.87
2019-04-10T18:24:49.761Z,41.10
2019-04-10T18:27:21.057Z,38.87
2019-04-10T18:29:52.468Z,30.83
2019-04-10T18:32:23.483Z,26.27
2019-04-10T18:34:54.186Z,25.63
2019-04-10T18:37:25.648Z,35.83
2019-04-10T18:39:57.039Z,43.60
2019-04-10T18:42:28.684Z,40.77
2019-04-10T18:44:59.659Z,40.77
2019-04-10T18:47:32.360Z,36.77
2019-04-10T18:50:03.036Z,37.43
2019-04-10T18:52:35.167Z,43.47
2019-04-10T18:55:06.247Z,35.50
2019-04-10T18:57:37.025Z,37.37
2019-04-10T19:00:28.132Z,33.73
2019-04-10T19:03:17.808Z,44.57
2019-04-10T19:05:52.549Z,36.10
2019-04-10T19:08:24.006Z,33.10
2019-04-10T19:11:08.115Z,27.57
2019-04-10T19:13:30.944Z,25.70
2019-04-10T19:16:03.794Z,36.20
2019-04-10T19:18:35.582Z,31.03
2019-04-10T19:21:11.374Z,31.90
2019-04-10T19:23:43.416Z,29.17
2019-04-10T19:26:19.032Z,29.27
2019-04-10T19:28:50.729Z,29.03
2019-04-10T19:31:24.164Z,27.77
2019-04-10T19:33:54.881Z,28.67
2019-04-10T19:36:27.859Z,32.93
2019-04-10T19:38:58.609Z,32.03
2019-04-10T19:41:35.873Z,30.10
2019-04-10T19:44:02.466Z,34.33
2019-04-10T19:46:34.054Z,34.50
2019-04-10T19:49:06.068Z,34.30
2019-04-10T19:51:37.052Z,52.20
2019-04-10T19:54:09.643Z,44.60
2019-04-10T19:56:40.900Z,48.57
2019-04-10T19:59:12.003Z,41.30
2019-04-10T20:01:42.741Z,44.57
2019-04-10T20:04:14.494Z,38.87
2019-04-10T20:06:46.730Z,39.37
2019-04-10T20:09:18.467Z,35.17
2019-04-10T20:11:53.036Z,35.83
2019-04-10T20:14:22.134Z,32.90
2019-04-10T20:16:54.214Z,37.03
2019-04-10T20:19:25.059Z,43.40
2019-04-10T20:21:56.480Z,29.63
2019-04-10T20:24:29.193Z,33.23
2019-04-10T20:26:59.890Z,34.90
2019-04-10T20:29:30.988Z,36.53
2019-04-10T20:32:01.742Z,34.17
2019-04-10T20:34:33.630Z,33.87
2019-04-10T20:37:09.263Z,38.40
2019-04-10T20:39:37.098Z,38.87
2019-04-10T20:42:07.894Z,37.43
2019-04-10T20:44:38.470Z,32.30
2019-04-10T20:47:09.002Z,32.10
2019-04-10T20:49:40.550Z,39.47
2019-04-10T20:52:12.843Z,43.20
2019-04-10T20:54:44.488Z,38.13
2019-04-10T20:57:15.252Z,42.07
2019-04-10T20:59:45.709Z,46.63
2019-04-10T21:02:16.291Z,37.10
2019-04-10T21:04:54.441Z,36.37
2019-04-10T21:07:19.384Z,34.40
2019-04-10T21:09:50.248Z,42.43
2019-04-10T21:12:21.464Z,34.57
2019-04-10T21:14:53.085Z,31.60
2019-04-10T21:17:27.499Z,38.43
2019-04-10T21:20:00.084Z,37.37
2019-04-10T21:22:30.763Z,34.90
2019-04-10T21:25:02.749Z,45.73
2019-04-10T21:27:33.351Z,45.60
2019-04-10T21:30:22.577Z,40.00
2019-04-10T21:33:00.273Z,41.40
2019-04-10T21:35:35.009Z,46.80
2019-04-10T21:38:06.834Z,42.97
2019-04-10T21:40:39.023Z,41.13
2019-04-10T21:43:10.109Z,53.60
2019-04-10T21:45:41.313Z,56.73
2019-04-10T21:48:12.880Z,48.40
2019-04-10T21:50:43.954Z,51.43
2019-04-10T21:53:14.668Z,53.83
2019-04-10T21:55:45.867Z,61.77
2019-04-10T21:58:16.454Z,74.17
2019-04-10T22:01:01.490Z,73.23
2019-04-10T22:03:33.922Z,68.83
2019-04-10T22:06:26.034Z,47.13
2019-04-10T22:09:16.696Z,40.10
2019-04-10T22:11:50.671Z,53.13
2019-04-10T22:14:21.503Z,55.90
2019-04-10T22:16:52.559Z,62.03
2019-04-10T22:19:23.336Z,76.23
2019-04-10T22:21:53.966Z,62.20
2019-04-10T22:24:25.608Z,45.97
2019-04-10T22:26:56.473Z,36.93
2019-04-10T22:29:28.169Z,34.20
2019-04-10T22:31:59.843Z,34.27
2019-04-10T22:34:30.575Z,32.97
2019-04-10T22:37:02.211Z,43.17
2019-04-10T22:39:33.606Z,39.60
2019-04-10T22:42:05.346Z,32.87
2019-04-10T22:44:40.898Z,38.23
2019-04-10T22:47:09.341Z,34.23
2019-04-10T22:49:39.860Z,46.37
2019-04-10T22:52:10.924Z,33.83
2019-04-10T22:54:42.321Z,38.77
2019-04-10T22:57:12.876Z,34.70
2019-04-10T22:59:43.520Z,35.50
2019-04-10T23:02:15.077Z,37.27
2019-04-10T23:04:47.122Z,36.90
2019-04-10T23:07:17.880Z,35.63
2019-04-10T23:09:48.646Z,33.50
2019-04-10T23:12:20.345Z,36.53
2019-04-10T23:14:51.227Z,34.77
2019-04-10T23:17:24.311Z,35.10
2019-04-10T23:19:55.280Z,32.47
2019-04-10T23:22:25.800Z,31.07
2019-04-10T23:24:56.348Z,29.27
2019-04-10T23:27:28.194Z,30.60
2019-04-10T23:29:58.978Z,28.13
2019-04-10T23:32:29.564Z,30.20
2019-04-10T23:35:00.949Z,28.87
2019-04-10T23:37:32.956Z,27.27
2019-04-10T23:40:04.866Z,34.70
2019-04-10T23:42:35.795Z,26.50
2019-04-10T23:45:07.196Z,33.30
2019-04-10T23:47:37.759Z,30.40
2019-04-10T23:50:08.250Z,30.33
2019-04-10T23:52:38.747Z,30.23
2019-04-10T23:55:10.126Z,30.87
2019-04-10T23:57:41.195Z,29.30
